Time;durP1;ratioP1;P1;durP2;ratioP2;P2;SDS_P1;SDS_P2;PMS_P1;PMS_P2;Temp;Humidity;BMP_temperature;BMP_pressure;BME280_temperature;BME280_humidity;BME280_pressure;Samples;Min_cycle;Max_cycle;Signal;HPM_P1;HPM_P2
2021/04/12 00:00:08;;;;;;;22.75;4.60;;;2.90;99.90;;;;;;5055788;28;20178;-48
2021/04/12 00:03:18;;;;;;;0.65;0.40;;;2.90;99.90;;;;;;5063450;28;20181;-49
2021/04/12 00:05:51;;;;;;;0.75;0.40;;;2.90;99.90;;;;;;5050903;28;20332;-50
2021/04/12 00:08:38;;;;;;;8.77;2.38;;;3.00;99.90;;;;;;5058299;28;20193;-50
2021/04/12 00:11:28;;;;;;;0.82;0.40;;;2.90;99.90;;;;;;5037007;28;20163;-51
2021/04/12 00:14:16;;;;;;;0.47;0.30;;;2.90;99.90;;;;;;5061048;28;20166;-51
2021/04/12 00:16:48;;;;;;;0.32;0.30;;;3.00;99.90;;;;;;5064893;28;20177;-48
2021/04/12 00:19:16;;;;;;;0.10;0.10;;;3.00;99.90;;;;;;5063390;28;20182;-48
2021/04/12 00:21:51;;;;;;;0.50;0.30;;;3.00;99.90;;;;;;5074117;28;20188;-48
2021/04/12 00:24:22;;;;;;;0.85;0.45;;;3.00;99.90;;;;;;5062640;28;20178;-49
2021/04/12 00:27:11;;;;;;;1.17;0.55;;;3.00;99.90;;;;;;5076092;28;20170;-51
2021/04/12 00:29:50;;;;;;;1.85;0.85;;;3.00;99.90;;;;;;5069869;28;20175;-50
2021/04/12 00:32:46;;;;;;;2.75;0.80;;;3.00;99.90;;;;;;5067758;28;20209;-49
2021/04/12 00:35:19;;;;;;;0.68;0.50;;;3.00;99.90;;;;;;5064742;28;20182;-48
2021/04/12 00:37:45;;;;;;;1.88;1.00;;;3.00;99.90;;;;;;5050768;28;20182;-48
2021/04/12 00:40:18;;;;;;;0.30;0.30;;;3.00;99.90;;;;;;5054644;28;20167;-49
2021/04/12 00:43:02;;;;;;;0.40;0.20;;;3.00;99.90;;;;;;5086865;28;20170;-49
2021/04/12 00:45:45;;;;;;;3.20;1.52;;;3.00;99.90;;;;;;5071326;28;20170;-53
2021/04/12 00:48:30;;;;;;;0.30;0.10;;;3.00;99.90;;;;;;5084394;28;20221;-49
2021/04/12 00:51:18;;;;;;;3.30;1.38;;;3.00;99.90;;;;;;5061150;28;20167;-50
2021/04/12 00:53:50;;;;;;;1.83;1.23;;;3.00;99.90;;;;;;5067315;28;20189;-49
2021/04/12 00:56:29;;;;;;;2.33;1.30;;;3.00;99.90;;;;;;5066666;28;20173;-49
2021/04/12 00:59:21;;;;;;;0.95;0.38;;;3.00;99.90;;;;;;5065974;28;20661;-48
2021/04/12 01:02:03;;;;;;;6.07;1.38;;;3.00;99.90;;;;;;5060813;28;20186;-49
2021/04/12 01:04:55;;;;;;;1.80;1.20;;;3.00;99.90;;;;;;5067070;28;20532;-51
2021/04/12 01:07:59;;;;;;;1.38;0.47;;;3.10;99.90;;;;;;5067664;28;20178;-50
2021/04/12 01:10:59;;;;;;;2.83;1.25;;;3.10;99.90;;;;;;5061041;28;20186;-49
2021/04/12 01:13:43;;;;;;;0.40;0.30;;;3.10;99.90;;;;;;5071494;28;20211;-49
2021/04/12 01:16:31;;;;;;;0.90;0.55;;;3.10;99.90;;;;;;5073112;28;20173;-47
2021/04/12 01:19:20;;;;;;;2.40;1.30;;;3.10;99.90;;;;;;5073421;28;20170;-51
2021/04/12 01:22:07;;;;;;;0.77;0.50;;;3.10;99.90;;;;;;5066180;28;20173;-47
2021/04/12 01:25:10;;;;;;;0.17;0.17;;;3.10;99.90;;;;;;5072371;28;20657;-50
2021/04/12 01:28:07;;;;;;;2.88;1.67;;;3.10;99.90;;;;;;5071070;28;20538;-53
2021/04/12 01:30:52;;;;;;;4.05;2.05;;;3.10;99.90;;;;;;5069924;28;20523;-53
2021/04/12 01:33:43;;;;;;;5.18;2.38;;;3.10;99.90;;;;;;5071996;28;20209;-53
2021/04/12 01:36:40;;;;;;;2.15;0.93;;;3.20;99.90;;;;;;5067624;28;20186;-52
2021/04/12 01:39:40;;;;;;;0.80;0.55;;;3.20;99.90;;;;;;5065079;28;20174;-52
2021/04/12 01:42:36;;;;;;;2.45;1.15;;;3.20;99.90;;;;;;5081736;28;20182;-52
2021/04/12 01:45:34;;;;;;;0.70;0.68;;;3.20;99.90;;;;;;5068966;28;20174;-53
2021/04/12 01:48:09;;;;;;;6.45;3.35;;;3.20;99.90;;;;;;5084854;28;20189;-52
2021/04/12 01:50:36;;;;;;;2.80;1.65;;;3.20;99.90;;;;;;5068114;28;20169;-53
2021/04/12 01:53:32;;;;;;;8.25;3.05;;;3.20;99.90;;;;;;5072858;28;20206;-54
2021/04/12 01:56:28;;;;;;;5.00;2.58;;;3.20;99.90;;;;;;5067517;28;20182;-53
2021/04/12 01:59:21;;;;;;;0.70;0.70;;;3.20;99.90;;;;;;5061589;28;20191;-53
2021/04/12 02:01:59;;;;;;;1.55;1.10;;;3.20;99.90;;;;;;5075647;28;20162;-53
2021/04/12 02:04:56;;;;;;;1.20;0.40;;;3.20;99.90;;;;;;5067419;28;20193;-53
2021/04/12 02:07:33;;;;;;;0.10;0.10;;;3.20;99.90;;;;;;5069267;28;20178;-52
2021/04/12 02:10:14;;;;;;;2.50;1.77;;;3.20;99.90;;;;;;5080249;28;20170;-53
2021/04/12 02:12:50;;;;;;;2.70;1.83;;;3.20;99.90;;;;;;5062775;28;20194;-53
2021/04/12 02:16:07;;;;;;;0.55;0.38;;;3.20;99.90;;;;;;5083162;28;20161;-52
2021/04/12 02:19:08;;;;;;;0.80;0.60;;;3.20;99.90;;;;;;5059241;28;20190;-52
2021/04/12 02:22:00;;;;;;;1.25;0.50;;;3.20;99.90;;;;;;5071834;28;20177;-52
2021/04/12 02:24:35;;;;;;;0.40;0.28;;;3.20;99.90;;;;;;5069225;28;20779;-51
2021/04/12 02:27:17;;;;;;;1.02;0.40;;;3.20;99.90;;;;;;5071044;28;20172;-53
2021/04/12 02:30:06;;;;;;;2.53;1.50;;;3.20;99.90;;;;;;5086334;28;20177;-51
2021/04/12 02:33:10;;;;;;;0.80;0.47;;;3.20;99.90;;;;;;5069755;28;20214;-51
2021/04/12 02:36:04;;;;;;;0.47;0.22;;;3.20;99.90;;;;;;5066836;28;20186;-50
2021/04/12 02:38:47;;;;;;;1.40;1.13;;;3.20;99.90;;;;;;5065072;28;20532;-48
2021/04/12 02:41:29;;;;;;;1.20;0.90;;;3.20;99.90;;;;;;5078235;28;20201;-48
2021/04/12 02:44:26;;;;;;;1.33;1.02;;;3.30;99.90;;;;;;5086330;28;20677;-50
2021/04/12 02:47:25;;;;;;;2.38;0.80;;;3.20;99.90;;;;;;5063116;28;20193;-50
2021/04/12 02:50:12;;;;;;;0.00;0.00;;;3.30;99.90;;;;;;5077471;28;20536;-52
2021/04/12 02:52:56;;;;;;;0.65;0.30;;;3.20;99.90;;;;;;5066169;28;20194;-48
2021/04/12 02:55:25;;;;;;;0.20;0.20;;;3.20;99.90;;;;;;5067558;28;20158;-52
2021/04/12 02:58:19;;;;;;;1.60;0.98;;;3.20;99.90;;;;;;5070087;28;20198;-50
2021/04/12 03:00:56;;;;;;;1.63;1.20;;;3.20;99.90;;;;;;5066302;28;20180;-50
2021/04/12 03:03:41;;;;;;;0.28;0.20;;;3.30;99.90;;;;;;5078610;28;20594;-51
2021/04/12 03:06:38;;;;;;;0.85;0.38;;;3.30;99.90;;;;;;5082634;28;20178;-48
2021/04/12 03:09:04;;;;;;;0.40;0.30;;;3.30;99.90;;;;;;5068196;28;20174;-49
2021/04/12 03:11:52;;;;;;;0.15;0.15;;;3.30;99.90;;;;;;5067197;28;20193;-48
2021/04/12 03:14:52;;;;;;;1.95;1.20;;;3.30;99.90;;;;;;5061128;28;20211;-47
2021/04/12 03:17:22;;;;;;;1.23;0.75;;;3.30;99.90;;;;;;5071265;28;20162;-49
2021/04/12 03:20:10;;;;;;;0.25;0.08;;;3.30;99.90;;;;;;5081764;28;20181;-48
2021/04/12 03:23:13;;;;;;;0.05;0.05;;;3.20;99.90;;;;;;5084304;28;20673;-48
2021/04/12 03:26:03;;;;;;;0.20;0.20;;;3.10;99.90;;;;;;5065590;28;20554;-49
2021/04/12 03:29:00;;;;;;;0.30;0.30;;;3.20;99.90;;;;;;5060801;28;20189;-48
2021/04/12 03:32:03;;;;;;;2.22;0.60;;;3.10;99.90;;;;;;5061689;28;20264;-49
2021/04/12 03:34:35;;;;;;;1.90;0.85;;;3.10;99.90;;;;;;5064238;28;20181;-48
2021/04/12 03:37:27;;;;;;;0.00;0.00;;;3.10;99.90;;;;;;5080641;28;20162;-51
2021/04/12 03:40:06;;;;;;;0.55;0.20;;;3.20;99.90;;;;;;5048873;28;20178;-49
2021/04/12 03:43:09;;;;;;;0.35;0.17;;;3.20;99.90;;;;;;5062669;28;20170;-49
2021/04/12 03:45:41;;;;;;;0.30;0.13;;;3.20;99.90;;;;;;5064483;28;20181;-50
2021/04/12 03:48:25;;;;;;;0.50;0.25;;;3.20;99.90;;;;;;5062434;28;20175;-49
2021/04/12 03:51:29;;;;;;;1.20;0.32;;;3.20;99.90;;;;;;5061988;28;20173;-50
2021/04/12 03:54:23;;;;;;;0.50;0.10;;;3.30;99.90;;;;;;5061253;28;20197;-48
2021/04/12 03:57:11;;;;;;;0.73;0.30;;;3.30;99.90;;;;;;5065771;28;20205;-47
2021/04/12 03:59:43;;;;;;;0.20;0.10;;;3.30;99.90;;;;;;5063271;28;20180;-49
2021/04/12 04:02:24;;;;;;;0.60;0.40;;;3.30;99.90;;;;;;5060179;28;20179;-47
2021/04/12 04:05:21;;;;;;;0.60;0.40;;;3.30;99.90;;;;;;5062967;28;20534;-48
2021/04/12 04:08:19;;;;;;;1.33;0.60;;;3.30;99.90;;;;;;5062931;28;20209;-51
2021/04/12 04:10:53;;;;;;;0.40;0.30;;;3.30;99.90;;;;;;5077450;28;20536;-48
2021/04/12 04:13:56;;;;;;;0.65;0.25;;;3.40;99.90;;;;;;5061579;28;20264;-48
2021/04/12 04:16:41;;;;;;;0.43;0.20;;;3.40;99.90;;;;;;5064370;28;20620;-49
2021/04/12 04:19:19;;;;;;;1.45;0.30;;;3.40;99.90;;;;;;5067630;28;20193;-48
2021/04/12 04:21:58;;;;;;;0.30;0.10;;;3.50;99.90;;;;;;5072146;28;20189;-51
2021/04/12 04:24:45;;;;;;;0.10;0.10;;;3.50;99.90;;;;;;5072141;28;20177;-50
2021/04/12 04:27:41;;;;;;;2.13;0.30;;;3.40;99.90;;;;;;5085053;28;20618;-48
2021/04/12 04:30:14;;;;;;;0.10;0.10;;;3.50;99.90;;;;;;5083405;28;20656;-48
2021/04/12 04:32:54;;;;;;;0.40;0.20;;;3.50;99.90;;;;;;5070220;28;20217;-50
2021/04/12 04:35:42;;;;;;;3.00;0.50;;;3.50;99.90;;;;;;5068902;28;20190;-50
2021/04/12 04:38:26;;;;;;;0.90;0.40;;;3.50;99.90;;;;;;5071073;28;20181;-51
2021/04/12 04:41:11;;;;;;;1.50;0.90;;;3.30;99.90;;;;;;5071816;28;20166;-50
2021/04/12 04:44:23;;;;;;;0.10;0.10;;;3.30;99.90;;;;;;5071834;28;20662;-50
2021/04/12 04:47:23;;;;;;;0.30;0.25;;;3.30;99.90;;;;;;5072452;28;20518;-52
2021/04/12 04:50:13;;;;;;;0.95;0.40;;;3.30;99.90;;;;;;5075900;28;20177;-50
2021/04/12 04:53:13;;;;;;;0.00;0.00;;;3.20;99.90;;;;;;5075151;28;20194;-49
2021/04/12 04:56:07;;;;;;;0.10;0.10;;;3.30;99.90;;;;;;5075945;28;20621;-50
2021/04/12 04:58:33;;;;;;;3.70;0.40;;;3.30;99.90;;;;;;5076072;28;20174;-49
2021/04/12 05:01:17;;;;;;;1.38;0.40;;;3.30;99.90;;;;;;5067934;28;20191;-49
2021/04/12 05:04:13;;;;;;;1.25;0.32;;;3.30;99.90;;;;;;5071330;28;20186;-50
2021/04/12 05:06:51;;;;;;;0.63;0.30;;;3.30;99.90;;;;;;5069653;28;20182;-52
2021/04/12 05:09:26;;;;;;;0.47;0.38;;;3.20;99.90;;;;;;5069898;28;20189;-50
2021/04/12 05:12:20;;;;;;;0.22;0.20;;;3.30;99.90;;;;;;5070208;28;20174;-50
2021/04/12 05:15:20;;;;;;;0.00;0.00;;;3.30;99.90;;;;;;5057752;28;20193;-52
2021/04/12 05:17:58;;;;;;;0.30;0.10;;;3.40;99.90;;;;;;5076368;28;20186;-49
2021/04/12 05:21:02;;;;;;;0.30;0.30;;;3.40;99.90;;;;;;5073995;28;20182;-51
2021/04/12 05:23:50;;;;;;;1.35;0.50;;;3.40;99.90;;;;;;5075396;28;20174;-51
2021/04/12 05:26:25;;;;;;;9.98;0.70;;;3.40;99.90;;;;;;5075203;28;20157;-49
2021/04/12 05:29:06;;;;;;;0.25;0.20;;;3.40;99.90;;;;;;5075184;28;20169;-50
2021/04/12 05:31:51;;;;;;;0.55;0.35;;;3.50;99.90;;;;;;5075237;28;20221;-53
2021/04/12 05:34:26;;;;;;;0.30;0.10;;;3.50;99.90;;;;;;5075165;28;20681;-49
2021/04/12 05:37:06;;;;;;;1.48;0.10;;;3.50;99.90;;;;;;5061942;28;20182;-50
2021/04/12 05:39:51;;;;;;;1.85;0.30;;;3.50;99.90;;;;;;5082418;28;20189;-50
2021/04/12 05:42:31;;;;;;;7.50;0.50;;;3.40;99.90;;;;;;5061276;28;20488;-51
2021/04/12 05:45:10;;;;;;;0.17;0.17;;;3.60;99.90;;;;;;5061479;28;20976;-51
2021/04/12 05:47:55;;;;;;;0.88;0.20;;;3.60;99.90;;;;;;5074273;28;20174;-49
2021/04/12 05:50:50;;;;;;;0.00;0.00;;;3.70;99.90;;;;;;5061560;28;20171;-53
2021/04/12 05:53:24;;;;;;;1.42;0.30;;;3.50;99.90;;;;;;5062929;28;20198;-49
2021/04/12 05:56:22;;;;;;;0.10;0.10;;;3.40;99.90;;;;;;5084294;28;20162;-52
2021/04/12 05:58:51;;;;;;;0.10;0.10;;;3.50;99.90;;;;;;5055293;28;20179;-49
2021/04/12 06:01:27;;;;;;;0.20;0.10;;;3.60;99.90;;;;;;5056621;28;20171;-52
2021/04/12 06:04:25;;;;;;;0.13;0.13;;;3.70;99.90;;;;;;5073086;28;20176;-49
2021/04/12 06:07:10;;;;;;;0.60;0.30;;;3.90;99.90;;;;;;5052236;28;20194;-48
2021/04/12 06:09:57;;;;;;;0.20;0.10;;;4.00;99.90;;;;;;5066860;28;20188;-53
2021/04/12 06:12:53;;;;;;;2.72;0.50;;;4.00;99.90;;;;;;5068907;28;20187;-49
2021/04/12 06:15:37;;;;;;;10.52;0.50;;;4.10;99.90;;;;;;5062564;28;20185;-52
2021/04/12 06:18:42;;;;;;;1.55;0.45;;;4.20;99.90;;;;;;5057583;28;20181;-49
2021/04/12 06:21:13;;;;;;;0.10;0.10;;;4.10;99.90;;;;;;5073857;28;20180;-49
2021/04/12 06:24:01;;;;;;;0.08;0.08;;;4.10;99.90;;;;;;5074056;28;20181;-51
2021/04/12 06:26:48;;;;;;;0.50;0.17;;;4.20;99.90;;;;;;5073959;28;20166;-51
2021/04/12 06:29:35;;;;;;;0.20;0.10;;;4.00;99.90;;;;;;5062847;28;20189;-50
2021/04/12 06:32:39;;;;;;;0.08;0.00;;;4.00;99.90;;;;;;5086007;28;20210;-51
2021/04/12 06:35:24;;;;;;;0.10;0.10;;;4.00;99.90;;;;;;5061034;28;20181;-51
2021/04/12 06:37:59;;;;;;;0.22;0.17;;;4.10;99.90;;;;;;5072889;28;20165;-49
2021/04/12 06:40:28;;;;;;;0.40;0.10;;;4.10;99.90;;;;;;5071809;28;20649;-50
2021/04/12 06:43:12;;;;;;;1.20;0.52;;;4.10;99.90;;;;;;5073652;28;20193;-51
2021/04/12 06:46:15;;;;;;;7.45;0.43;;;4.10;99.90;;;;;;5067210;28;20174;-51
2021/04/12 06:49:19;;;;;;;0.22;0.15;;;4.20;99.90;;;;;;5057476;28;20178;-48
2021/04/12 06:52:03;;;;;;;0.57;0.10;;;4.00;99.90;;;;;;5064077;28;20174;-49
2021/04/12 06:55:06;;;;;;;0.00;0.00;;;4.10;99.90;;;;;;5058569;28;20256;-48
2021/04/12 06:57:51;;;;;;;0.00;0.00;;;4.00;99.90;;;;;;5063632;28;20198;-53
2021/04/12 07:00:59;;;;;;;3.70;0.30;;;4.10;99.90;;;;;;5070454;28;20170;-51
2021/04/12 07:03:50;;;;;;;3.85;0.47;;;4.30;99.90;;;;;;5044709;28;20186;-49
2021/04/12 07:06:22;;;;;;;0.00;0.00;;;4.30;99.90;;;;;;5053727;28;20661;-50
2021/04/12 07:09:19;;;;;;;2.65;0.20;;;4.10;99.90;;;;;;5076173;28;20201;-50
2021/04/12 07:12:10;;;;;;;0.65;0.20;;;4.10;99.90;;;;;;5069764;28;20185;-48
2021/04/12 07:15:08;;;;;;;0.20;0.20;;;4.10;99.90;;;;;;5067324;28;20201;-52
2021/04/12 07:17:53;;;;;;;0.00;0.00;;;4.10;99.90;;;;;;5071952;28;20162;-51
2021/04/12 07:20:50;;;;;;;0.30;0.30;;;4.10;99.90;;;;;;5072877;28;20177;-51
2021/04/12 07:23:53;;;;;;;0.00;0.00;;;4.10;99.90;;;;;;5066159;28;20170;-53
2021/04/12 07:26:57;;;;;;;0.55;0.10;;;4.20;99.90;;;;;;5087053;28;20175;-50
2021/04/12 07:29:48;;;;;;;0.10;0.10;;;4.10;99.90;;;;;;5076124;28;20178;-53
2021/04/12 07:32:32;;;;;;;4.97;0.40;;;4.20;99.90;;;;;;5051743;28;20226;-49
2021/04/12 07:35:14;;;;;;;1.35;0.22;;;4.40;99.90;;;;;;5053999;28;20178;-50
2021/04/12 07:37:46;;;;;;;0.20;0.13;;;4.40;99.90;;;;;;5069962;28;20169;-52
2021/04/12 07:40:49;;;;;;;0.00;0.00;;;4.30;99.90;;;;;;5058359;28;20170;-49
2021/04/12 07:43:52;;;;;;;0.30;0.15;;;4.40;99.90;;;;;;5059350;28;20653;-48
2021/04/12 07:46:50;;;;;;;0.25;0.15;;;4.40;99.90;;;;;;5072422;28;20170;-54
2021/04/12 07:49:57;;;;;;;0.10;0.10;;;4.30;99.90;;;;;;5083398;28;20728;-50
2021/04/12 07:53:01;;;;;;;0.38;0.10;;;4.30;99.90;;;;;;5088578;28;20194;-51
2021/04/12 07:55:44;;;;;;;0.50;0.30;;;4.20;99.90;;;;;;5069044;28;20189;-50
2021/04/12 07:58:48;;;;;;;0.10;0.00;;;4.50;99.90;;;;;;5083789;28;20205;-52
2021/04/12 08:01:50;;;;;;;0.50;0.20;;;4.70;99.90;;;;;;5063993;28;20182;-49
2021/04/12 08:04:58;;;;;;;1.65;0.10;;;5.10;99.90;;;;;;5084829;28;20169;-51
2021/04/12 08:08:01;;;;;;;0.30;0.10;;;4.70;99.90;;;;;;5060505;28;20181;-55
2021/04/12 08:10:43;;;;;;;6.22;1.25;;;4.40;99.90;;;;;;5062844;28;20189;-55
2021/04/12 08:13:44;;;;;;;3.53;0.20;;;4.40;99.90;;;;;;5069851;28;21899;-53
2021/04/12 08:16:16;;;;;;;0.95;0.25;;;4.40;99.90;;;;;;5085829;28;20184;-52
2021/04/12 08:19:12;;;;;;;0.00;0.00;;;4.30;99.90;;;;;;5071730;28;20174;-52
2021/04/12 08:21:47;;;;;;;1.98;0.30;;;4.50;99.90;;;;;;5068286;28;20162;-53
2021/04/12 08:24:45;;;;;;;1.05;0.30;;;5.50;99.90;;;;;;5063864;28;20622;-52
2021/04/12 08:27:30;;;;;;;0.60;0.15;;;5.40;99.90;;;;;;5073627;28;20615;-53
2021/04/12 08:30:17;;;;;;;5.78;0.30;;;4.70;99.90;;;;;;5073601;28;20189;-49
2021/04/12 08:32:59;;;;;;;1.75;0.15;;;4.60;99.90;;;;;;5067370;28;20210;-51
2021/04/12 08:35:56;;;;;;;6.25;0.25;;;4.50;99.90;;;;;;5074930;28;20170;-49
2021/04/12 08:38:46;;;;;;;3.17;0.40;;;4.40;99.90;;;;;;5077398;28;20174;-49
2021/04/12 08:41:26;;;;;;;0.50;0.13;;;4.60;99.90;;;;;;5071068;28;20186;-52
2021/04/12 08:44:28;;;;;;;3.20;0.40;;;4.70;99.90;;;;;;5087026;28;20630;-51
2021/04/12 08:47:31;;;;;;;2.10;0.47;;;4.90;99.90;;;;;;5057140;28;20167;-49
2021/04/12 08:50:23;;;;;;;4.20;0.50;;;5.10;99.90;;;;;;5069146;28;20169;-52
2021/04/12 08:53:10;;;;;;;1.38;0.40;;;4.90;99.90;;;;;;5088378;28;20181;-53
2021/04/12 08:56:13;;;;;;;0.20;0.00;;;5.40;99.90;;;;;;5066677;28;20186;-50
2021/04/12 08:59:03;;;;;;;1.60;0.40;;;5.40;99.90;;;;;;5068690;28;20184;-49
2021/04/12 09:02:07;;;;;;;4.72;0.55;;;5.60;99.90;;;;;;5074844;28;20175;-52
2021/04/12 09:04:59;;;;;;;0.22;0.20;;;5.50;99.90;;;;;;5060230;28;20197;-49
2021/04/12 09:07:46;;;;;;;0.98;0.20;;;5.50;99.90;;;;;;5058676;28;20163;-51
2021/04/12 09:10:31;;;;;;;3.15;0.50;;;5.70;99.90;;;;;;5055482;28;20171;-50
2021/04/12 09:13:03;;;;;;;1.45;0.30;;;5.80;99.90;;;;;;5073947;28;20162;-52
2021/04/12 09:15:48;;;;;;;2.17;0.38;;;5.60;99.90;;;;;;5075753;28;20194;-51
2021/04/12 09:18:33;;;;;;;1.08;0.30;;;5.40;99.90;;;;;;5055043;28;20254;-48
2021/04/12 09:21:07;;;;;;;0.43;0.10;;;5.30;99.90;;;;;;5071000;28;20167;-49
2021/04/12 09:23:43;;;;;;;7.72;0.20;;;5.80;99.90;;;;;;5055776;28;20162;-52
2021/04/12 09:26:24;;;;;;;4.95;0.40;;;6.10;99.90;;;;;;5069037;28;20637;-49
2021/04/12 09:29:22;;;;;;;5.78;0.40;;;6.40;99.90;;;;;;5059457;28;20178;-50
2021/04/12 09:32:26;;;;;;;5.32;0.40;;;6.10;99.90;;;;;;5054710;28;20218;-51
2021/04/12 09:35:10;;;;;;;1.48;0.45;;;5.80;99.90;;;;;;5062004;28;20210;-52
2021/04/12 09:37:51;;;;;;;2.83;0.40;;;5.80;99.90;;;;;;5070489;28;20209;-54
2021/04/12 09:40:27;;;;;;;0.40;0.17;;;5.70;99.90;;;;;;5061608;28;20182;-50
2021/04/12 09:43:31;;;;;;;2.72;0.40;;;5.70;99.90;;;;;;5069747;28;20201;-52
2021/04/12 09:46:31;;;;;;;2.50;0.30;;;5.70;99.90;;;;;;5061831;28;20177;-52
2021/04/12 09:49:12;;;;;;;1.38;0.17;;;5.50;99.90;;;;;;5069952;28;20661;-49
2021/04/12 09:51:57;;;;;;;2.30;0.35;;;5.40;99.90;;;;;;5070812;28;20187;-53
2021/04/12 09:54:53;;;;;;;1.00;0.10;;;5.60;99.90;;;;;;5065107;28;20564;-52
2021/04/12 09:57:57;;;;;;;0.20;0.20;;;5.80;99.90;;;;;;5072471;28;20693;-50
2021/04/12 10:00:38;;;;;;;3.85;0.22;;;6.40;99.90;;;;;;5071923;28;20532;-52
2021/04/12 10:03:38;;;;;;;1.70;0.40;;;7.20;99.90;;;;;;5058843;28;20649;-51
2021/04/12 10:06:19;;;;;;;0.98;0.22;;;7.20;99.90;;;;;;5054694;28;20177;-51
2021/04/12 10:09:14;;;;;;;0.88;0.30;;;7.10;99.90;;;;;;5055037;28;20159;-52
2021/04/12 10:12:04;;;;;;;1.65;0.35;;;6.50;99.90;;;;;;5055234;28;20186;-50
2021/04/12 10:14:56;;;;;;;1.23;0.20;;;6.20;99.90;;;;;;5075685;28;20229;-52
2021/04/12 10:17:44;;;;;;;1.00;0.10;;;6.20;99.90;;;;;;5057316;28;20159;-54
2021/04/12 10:20:13;;;;;;;1.13;0.30;;;6.10;99.90;;;;;;5052964;28;20551;-50
2021/04/12 10:22:59;;;;;;;3.95;0.73;;;6.20;99.90;;;;;;5069570;28;20171;-53
2021/04/12 10:25:35;;;;;;;0.85;0.35;;;6.50;99.90;;;;;;5082132;28;20181;-53
2021/04/12 10:28:09;;;;;;;3.05;0.22;;;6.20;99.90;;;;;;5074033;28;20181;-52
2021/04/12 10:31:21;;;;;;;0.22;0.20;;;6.10;99.90;;;;;;5089689;28;20650;-49
2021/04/12 10:34:13;;;;;;;0.47;0.25;;;5.90;99.90;;;;;;5054206;28;20658;-49
2021/04/12 10:36:51;;;;;;;2.90;0.30;;;6.10;99.90;;;;;;5070317;28;20186;-51
2021/04/12 10:39:38;;;;;;;0.40;0.20;;;6.90;99.90;;;;;;5071592;28;20166;-49
2021/04/12 10:42:32;;;;;;;4.28;0.52;;;7.00;99.90;;;;;;5061837;28;20190;-50
2021/04/12 10:45:06;;;;;;;0.17;0.10;;;6.70;99.90;;;;;;5076881;28;20167;-52
2021/04/12 10:47:38;;;;;;;7.30;0.68;;;6.50;99.90;;;;;;5081826;28;20173;-52
2021/04/12 10:50:16;;;;;;;2.30;0.45;;;6.50;99.90;;;;;;5054705;28;20182;-52
2021/04/12 10:53:24;;;;;;;3.10;0.85;;;6.50;99.90;;;;;;5058822;28;20582;-53
2021/04/12 10:56:02;;;;;;;4.03;0.60;;;6.50;99.90;;;;;;5082549;28;20428;-50
2021/04/12 10:58:34;;;;;;;0.60;0.30;;;6.70;99.90;;;;;;5070214;28;20192;-54
2021/04/12 11:01:15;;;;;;;0.77;0.30;;;7.00;99.90;;;;;;5043740;28;20534;-51
2021/04/12 11:03:50;;;;;;;0.40;0.20;;;8.30;99.90;;;;;;5061660;28;20646;-50
2021/04/12 11:06:58;;;;;;;0.00;0.00;;;8.10;99.90;;;;;;5071837;28;20648;-51
2021/04/12 11:09:40;;;;;;;1.20;0.30;;;7.20;99.90;;;;;;5071150;28;20664;-48
2021/04/12 11:12:11;;;;;;;4.05;0.40;;;6.60;99.90;;;;;;5059071;28;20541;-51
2021/04/12 11:14:45;;;;;;;2.17;0.45;;;6.70;99.90;;;;;;5084391;28;20224;-51
2021/04/12 11:17:32;;;;;;;1.92;0.30;;;6.60;99.90;;;;;;5065999;28;20625;-52
2021/04/12 11:20:13;;;;;;;0.50;0.10;;;6.70;99.90;;;;;;5072053;28;20638;-51
2021/04/12 11:22:58;;;;;;;2.63;0.35;;;6.70;99.90;;;;;;5071693;28;20185;-52
2021/04/12 11:25:42;;;;;;;3.08;0.40;;;7.30;99.90;;;;;;5070132;28;20181;-52
2021/04/12 11:28:17;;;;;;;1.23;0.40;;;7.40;99.90;;;;;;5060857;28;20192;-52
2021/04/12 11:30:59;;;;;;;2.85;0.30;;;7.00;99.90;;;;;;5065080;28;20180;-53
2021/04/12 11:33:56;;;;;;;3.22;0.30;;;6.60;99.90;;;;;;5065959;28;20556;-53
2021/04/12 11:36:25;;;;;;;5.72;0.63;;;6.50;99.90;;;;;;5066678;28;20185;-52
2021/04/12 11:39:36;;;;;;;5.47;0.60;;;6.50;99.90;;;;;;5051085;28;20635;-52
2021/04/12 11:42:07;;;;;;;0.77;0.20;;;6.50;99.90;;;;;;5070650;28;20185;-53
2021/04/12 11:44:59;;;;;;;9.13;0.50;;;6.60;99.90;;;;;;5077520;28;20185;-50
2021/04/12 11:47:28;;;;;;;3.05;0.30;;;6.50;99.90;;;;;;5084130;28;20615;-53
2021/04/12 11:50:13;;;;;;;3.88;0.32;;;7.50;99.90;;;;;;5087078;28;20185;-52
2021/04/12 11:52:56;;;;;;;3.22;0.60;;;7.40;99.90;;;;;;5060312;28;20187;-52
2021/04/12 11:55:46;;;;;;;0.10;0.10;;;7.30;99.90;;;;;;5068713;28;20214;-52
2021/04/12 11:58:16;;;;;;;6.55;0.70;;;7.10;99.90;;;;;;5066547;28;20189;-53
2021/04/12 12:00:49;;;;;;;3.22;0.70;;;7.80;99.90;;;;;;5068607;28;20171;-53
2021/04/12 12:03:32;;;;;;;2.83;0.57;;;7.90;99.90;;;;;;5062162;28;20178;-52
2021/04/12 12:06:22;;;;;;;11.15;0.77;;;7.70;99.90;;;;;;5085179;28;20158;-50
2021/04/12 12:09:17;;;;;;;1.73;0.45;;;7.50;99.90;;;;;;5070454;28;20630;-51
2021/04/12 12:12:08;;;;;;;4.70;0.82;;;7.30;99.90;;;;;;5041608;28;20540;-50
2021/04/12 12:14:39;;;;;;;4.93;0.90;;;7.10;99.90;;;;;;5065179;28;20194;-52
2021/04/12 12:17:11;;;;;;;5.60;0.98;;;6.70;99.90;;;;;;5076680;28;20189;-50
2021/04/12 12:20:11;;;;;;;6.55;0.50;;;6.60;99.90;;;;;;5076927;28;20697;-50
2021/04/12 12:22:57;;;;;;;24.45;0.90;;;6.50;99.90;;;;;;5066156;28;20258;-52
2021/04/12 12:25:24;;;;;;;3.15;0.50;;;6.40;99.90;;;;;;5079138;28;20196;-53
2021/04/12 12:28:19;;;;;;;2.55;0.77;;;6.80;99.90;;;;;;5063143;28;20194;-51
2021/04/12 12:31:07;;;;;;;1.00;0.50;;;7.20;99.90;;;;;;5072639;28;20174;-49
2021/04/12 12:33:42;;;;;;;2.08;0.70;;;7.70;99.90;;;;;;5074097;28;20181;-52
2021/04/12 12:36:22;;;;;;;2.35;0.88;;;7.80;99.90;;;;;;5062490;28;20184;-50
2021/04/12 12:39:05;;;;;;;1.38;0.38;;;7.20;99.90;;;;;;5063268;28;20523;-56
2021/04/12 12:41:36;;;;;;;2.10;0.57;;;7.40;99.90;;;;;;5057916;28;20181;-53
2021/04/12 12:44:06;;;;;;;2.53;0.60;;;8.00;99.90;;;;;;5054030;28;20189;-54
2021/04/12 12:46:36;;;;;;;4.78;0.52;;;8.00;99.90;;;;;;5076070;28;20337;-59
2021/04/12 12:49:06;;;;;;;2.72;0.30;;;8.80;99.90;;;;;;5071136;28;20201;-55
2021/04/12 12:51:41;;;;;;;1.75;0.43;;;8.50;99.90;;;;;;5056829;28;20647;-55
2021/04/12 12:54:20;;;;;;;1.60;0.35;;;8.50;99.90;;;;;;5071300;28;20200;-53
2021/04/12 12:56:46;;;;;;;1.10;0.35;;;9.20;99.90;;;;;;5073305;28;20197;-52
2021/04/12 12:59:26;;;;;;;6.07;0.88;;;8.90;99.90;;;;;;5057539;28;20175;-55
2021/04/12 13:01:54;;;;;;;8.02;0.98;;;8.30;99.90;;;;;;5063945;28;20172;-51
2021/04/12 13:04:22;;;;;;;2.70;0.40;;;8.60;99.90;;;;;;5085924;28;20169;-54
2021/04/12 13:06:50;;;;;;;3.72;0.70;;;8.10;99.90;;;;;;5056867;28;20193;-53
2021/04/12 13:09:34;;;;;;;4.38;0.50;;;8.20;99.90;;;;;;5070420;28;20163;-51
2021/04/12 13:12:13;;;;;;;1.45;0.40;;;8.20;99.90;;;;;;5063703;28;20538;-52
2021/04/12 13:14:45;;;;;;;3.25;0.63;;;7.50;99.90;;;;;;5082678;28;20562;-54
2021/04/12 13:17:35;;;;;;;4.15;0.60;;;7.40;99.90;;;;;;5061706;28;20540;-49
2021/04/12 13:20:06;;;;;;;3.92;0.80;;;7.20;99.90;;;;;;5066527;28;20642;-52
2021/04/12 13:22:35;;;;;;;1.63;0.45;;;7.30;99.90;;;;;;5067137;28;20553;-53
2021/04/12 13:25:28;;;;;;;2.60;0.38;;;7.50;99.90;;;;;;5058102;28;20634;-52
2021/04/12 13:28:08;;;;;;;4.65;0.63;;;7.50;99.90;;;;;;5071103;28;20658;-52
2021/04/12 13:30:34;;;;;;;12.73;0.65;;;7.70;99.90;;;;;;5056060;28;20190;-53
2021/04/12 13:33:06;;;;;;;1.85;0.30;;;7.50;99.90;;;;;;5060362;28;20179;-50
2021/04/12 13:35:35;;;;;;;1.70;0.20;;;7.80;99.90;;;;;;5073373;28;20559;-50
2021/04/12 13:38:16;;;;;;;2.25;0.50;;;7.80;99.90;;;;;;5056219;28;20261;-51
2021/04/12 13:41:03;;;;;;;4.75;0.90;;;7.60;99.90;;;;;;5040333;28;20177;-50
2021/04/12 13:43:30;;;;;;;3.80;0.30;;;7.10;99.90;;;;;;5062952;28;20159;-53
2021/04/12 13:45:57;;;;;;;3.83;0.38;;;7.00;99.90;;;;;;5062696;28;20181;-53
2021/04/12 13:48:24;;;;;;;9.63;0.50;;;6.90;99.90;;;;;;5046474;28;20177;-50
2021/04/12 13:50:59;;;;;;;0.90;0.35;;;6.70;99.90;;;;;;5061220;28;20542;-53
2021/04/12 13:53:28;;;;;;;1.27;0.32;;;6.00;99.90;;;;;;5053508;28;20162;-50
2021/04/12 13:56:23;;;;;;;1.85;0.20;;;6.40;99.90;;;;;;5057853;28;20213;-53
2021/04/12 13:59:35;;;;;;;3.15;0.63;;;6.90;99.90;;;;;;5066711;28;20203;-53
2021/04/12 14:02:26;;;;;;;6.15;0.50;;;7.50;99.90;;;;;;5059014;28;20206;-54
2021/04/12 14:04:54;;;;;;;7.28;0.70;;;8.10;99.90;;;;;;5066162;28;20189;-52
2021/04/12 14:07:32;;;;;;;1.75;0.60;;;8.30;99.90;;;;;;5045745;28;20195;-53
2021/04/12 14:10:11;;;;;;;3.92;0.60;;;7.40;99.90;;;;;;5056723;28;20178;-50
2021/04/12 14:12:54;;;;;;;6.15;0.57;;;7.10;99.90;;;;;;5062366;28;20174;-53
2021/04/12 14:15:26;;;;;;;2.78;0.50;;;6.90;99.90;;;;;;5048484;28;20190;-52
2021/04/12 14:18:04;;;;;;;2.40;0.40;;;6.90;99.90;;;;;;5071046;28;20194;-52
2021/04/12 14:20:44;;;;;;;7.70;0.50;;;6.70;99.90;;;;;;5026797;28;20673;-50
2021/04/12 14:23:21;;;;;;;2.75;0.70;;;6.80;99.90;;;;;;5052085;28;20622;-53
2021/04/12 14:26:09;;;;;;;10.50;0.60;;;6.80;99.90;;;;;;5037770;28;20285;-52
2021/04/12 14:28:46;;;;;;;3.67;0.50;;;6.90;99.90;;;;;;5048972;28;20273;-50
2021/04/12 14:31:26;;;;;;;3.10;0.40;;;7.10;99.90;;;;;;5066494;28;20224;-49
2021/04/12 14:33:59;;;;;;;0.50;0.15;;;6.90;99.90;;;;;;5063708;28;20194;-50